sensor_id;sensor_type;location;lat;lon;timestamp;P1;durP1;ratioP1;P2;durP2;ratioP2
13311;SDS011;34033;48.672;9.376;2024-01-15T00:01:04;3.80;;;2.77;;
13311;SDS011;34033;48.672;9.376;2024-01-15T00:03:30;4.23;;;2.43;;
13311;SDS011;34033;48.672;9.376;2024-01-15T00:05:55;5.73;;;3.60;;
13311;SDS011;34033;48.672;9.376;2024-01-15T00:08:20;6.10;;;2.73;;
13311;SDS011;34033;48.672;9.376;2024-01-15T00:10:46;4.40;;;3.00;;
13311;SDS011;34033;48.672;9.376;2024-01-15T00:13:11;5.73;;;2.87;;
13311;SDS011;34033;48.672;9.376;2024-01-15T00:15:36;3.83;;;2.80;;
13311;SDS011;34033;48.672;9.376;2024-01-15T00:18:02;5.50;;;3.30;;
13311;SDS011;34033;48.672;9.376;2024-01-15T00:20:27;4.77;;;2.93;;
13311;SDS011;34033;48.672;9.376;2024-01-15T00:22:53;4.47;;;2.93;;
13311;SDS011;34033;48.672;9.376;2024-01-15T00:25:18;6.73;;;3.10;;
13311;SDS011;34033;48.672;9.376;2024-01-15T00:27:43;5.43;;;3.03;;
13311;SDS011;34033;48.672;9.376;2024-01-15T00:30:09;3.80;;;2.67;;
13311;SDS011;34033;48.672;9.376;2024-01-15T00:32:34;4.17;;;2.77;;
13311;SDS011;34033;48.672;9.376;2024-01-15T00:35:00;2.40;;;2.20;;
13311;SDS011;34033;48.672;9.376;2024-01-15T00:37:25;3.50;;;2.47;;
13311;SDS011;34033;48.672;9.376;2024-01-15T00:39:50;5.73;;;2.03;;
13311;SDS011;34033;48.672;9.376;2024-01-15T00:42:16;4.03;;;2.43;;
13311;SDS011;34033;48.672;9.376;2024-01-15T00:44:41;3.27;;;2.20;;
13311;SDS011;34033;48.672;9.376;2024-01-15T00:47:07;3.37;;;2.10;;
13311;SDS011;34033;48.672;9.376;2024-01-15T00:49:32;2.10;;;1.80;;
13311;SDS011;34033;48.672;9.376;2024-01-15T00:51:58;6.27;;;1.97;;
13311;SDS011;34033;48.672;9.376;2024-01-15T00:54:23;1.50;;;1.33;;
13311;SDS011;34033;48.672;9.376;2024-01-15T00:56:48;2.10;;;1.57;;
13311;SDS011;34033;48.672;9.376;2024-01-15T00:59:14;4.83;;;2.57;;
13311;SDS011;34033;48.672;9.376;2024-01-15T01:01:42;3.90;;;2.40;;
13311;SDS011;34033;48.672;9.376;2024-01-15T01:04:09;4.27;;;2.80;;
13311;SDS011;34033;48.672;9.376;2024-01-15T01:06:34;3.37;;;2.43;;
13311;SDS011;34033;48.672;9.376;2024-01-15T01:09:00;3.37;;;2.33;;
13311;SDS011;34033;48.672;9.376;2024-01-15T01:11:25;5.97;;;2.90;;
13311;SDS011;34033;48.672;9.376;2024-01-15T01:13:51;4.97;;;2.07;;
13311;SDS011;34033;48.672;9.376;2024-01-15T01:16:16;4.93;;;1.53;;
13311;SDS011;34033;48.672;9.376;2024-01-15T01:18:41;1.37;;;1.27;;
13311;SDS011;34033;48.672;9.376;2024-01-15T01:21:07;1.60;;;1.43;;
13311;SDS011;34033;48.672;9.376;2024-01-15T01:23:32;2.03;;;1.43;;
13311;SDS011;34033;48.672;9.376;2024-01-15T01:25:57;2.13;;;1.50;;
13311;SDS011;34033;48.672;9.376;2024-01-15T01:28:23;1.50;;;1.40;;
13311;SDS011;34033;48.672;9.376;2024-01-15T01:30:48;3.13;;;1.70;;
13311;SDS011;34033;48.672;9.376;2024-01-15T01:33:13;1.53;;;1.10;;
13311;SDS011;34033;48.672;9.376;2024-01-15T01:35:39;1.77;;;1.30;;
13311;SDS011;34033;48.672;9.376;2024-01-15T01:38:04;1.27;;;1.17;;
13311;SDS011;34033;48.672;9.376;2024-01-15T01:40:29;0.97;;;0.97;;
13311;SDS011;34033;48.672;9.376;2024-01-15T01:42:55;3.77;;;1.20;;
13311;SDS011;34033;48.672;9.376;2024-01-15T01:45:20;1.50;;;1.40;;
13311;SDS011;34033;48.672;9.376;2024-01-15T01:47:45;2.03;;;1.37;;
13311;SDS011;34033;48.672;9.376;2024-01-15T01:50:11;1.83;;;1.33;;
13311;SDS011;34033;48.672;9.376;2024-01-15T01:52:38;1.17;;;0.90;;
13311;SDS011;34033;48.672;9.376;2024-01-15T01:55:03;2.50;;;2.00;;
13311;SDS011;34033;48.672;9.376;2024-01-15T01:57:31;1.17;;;1.13;;
13311;SDS011;34033;48.672;9.376;2024-01-15T01:59:59;1.30;;;1.20;;
13311;SDS011;34033;48.672;9.376;2024-01-15T02:02:26;1.40;;;1.30;;
13311;SDS011;34033;48.672;9.376;2024-01-15T02:04:51;1.43;;;1.20;;
13311;SDS011;34033;48.672;9.376;2024-01-15T02:07:17;2.37;;;1.30;;
13311;SDS011;34033;48.672;9.376;2024-01-15T02:09:42;1.63;;;1.00;;
13311;SDS011;34033;48.672;9.376;2024-01-15T02:12:09;4.93;;;1.40;;
13311;SDS011;34033;48.672;9.376;2024-01-15T02:14:35;1.07;;;1.07;;
13311;SDS011;34033;48.672;9.376;2024-01-15T02:17:00;1.20;;;1.10;;
13311;SDS011;34033;48.672;9.376;2024-01-15T02:19:25;1.33;;;1.23;;
13311;SDS011;34033;48.672;9.376;2024-01-15T02:21:51;1.60;;;1.27;;
13311;SDS011;34033;48.672;9.376;2024-01-15T02:24:16;1.17;;;1.07;;
13311;SDS011;34033;48.672;9.376;2024-01-15T02:26:41;2.80;;;1.20;;
13311;SDS011;34033;48.672;9.376;2024-01-15T02:29:07;1.33;;;1.23;;
13311;SDS011;34033;48.672;9.376;2024-01-15T02:31:36;1.30;;;1.20;;
13311;SDS011;34033;48.672;9.376;2024-01-15T02:34:02;1.90;;;1.43;;
13311;SDS011;34033;48.672;9.376;2024-01-15T02:36:27;1.40;;;1.30;;
13311;SDS011;34033;48.672;9.376;2024-01-15T02:38:52;1.67;;;1.53;;
13311;SDS011;34033;48.672;9.376;2024-01-15T02:41:18;1.17;;;1.00;;
13311;SDS011;34033;48.672;9.376;2024-01-15T02:43:43;1.27;;;1.17;;
13311;SDS011;34033;48.672;9.376;2024-01-15T02:46:08;1.37;;;1.27;;
13311;SDS011;34033;48.672;9.376;2024-01-15T02:48:34;1.20;;;1.10;;
13311;SDS011;34033;48.672;9.376;2024-01-15T02:51:02;1.27;;;1.17;;
13311;SDS011;34033;48.672;9.376;2024-01-15T02:53:28;3.63;;;2.10;;
13311;SDS011;34033;48.672;9.376;2024-01-15T02:55:53;1.23;;;1.13;;
13311;SDS011;34033;48.672;9.376;2024-01-15T02:58:19;2.07;;;1.40;;
13311;SDS011;34033;48.672;9.376;2024-01-15T03:00:44;1.77;;;1.20;;
13311;SDS011;34033;48.672;9.376;2024-01-15T03:03:11;1.67;;;1.00;;
13311;SDS011;34033;48.672;9.376;2024-01-15T03:05:36;4.10;;;0.90;;
13311;SDS011;34033;48.672;9.376;2024-01-15T03:08:02;1.97;;;1.50;;
13311;SDS011;34033;48.672;9.376;2024-01-15T03:10:27;1.97;;;1.40;;
13311;SDS011;34033;48.672;9.376;2024-01-15T03:12:52;1.10;;;0.90;;
13311;SDS011;34033;48.672;9.376;2024-01-15T03:15:18;1.43;;;1.23;;
13311;SDS011;34033;48.672;9.376;2024-01-15T03:17:43;0.80;;;0.80;;
13311;SDS011;34033;48.672;9.376;2024-01-15T03:20:09;2.40;;;1.60;;
13311;SDS011;34033;48.672;9.376;2024-01-15T03:22:35;2.03;;;1.23;;
13311;SDS011;34033;48.672;9.376;2024-01-15T03:25:00;1.90;;;1.40;;
13311;SDS011;34033;48.672;9.376;2024-01-15T03:27:26;1.33;;;1.20;;
13311;SDS011;34033;48.672;9.376;2024-01-15T03:29:51;2.03;;;1.20;;
13311;SDS011;34033;48.672;9.376;2024-01-15T03:32:16;2.57;;;1.83;;
13311;SDS011;34033;48.672;9.376;2024-01-15T03:34:42;2.40;;;1.40;;
13311;SDS011;34033;48.672;9.376;2024-01-15T03:37:07;2.70;;;1.57;;
13311;SDS011;34033;48.672;9.376;2024-01-15T03:39:33;2.13;;;1.43;;
13311;SDS011;34033;48.672;9.376;2024-01-15T03:41:58;1.37;;;1.17;;
13311;SDS011;34033;48.672;9.376;2024-01-15T03:44:23;1.70;;;1.40;;
13311;SDS011;34033;48.672;9.376;2024-01-15T03:46:49;1.30;;;1.20;;
13311;SDS011;34033;48.672;9.376;2024-01-15T03:49:14;3.70;;;1.60;;
13311;SDS011;34033;48.672;9.376;2024-01-15T03:51:40;2.50;;;1.60;;
13311;SDS011;34033;48.672;9.376;2024-01-15T03:54:05;1.93;;;1.40;;
13311;SDS011;34033;48.672;9.376;2024-01-15T03:56:30;1.80;;;1.23;;
13311;SDS011;34033;48.672;9.376;2024-01-15T03:58:56;2.53;;;1.63;;
13311;SDS011;34033;48.672;9.376;2024-01-15T04:01:21;1.30;;;1.00;;
13311;SDS011;34033;48.672;9.376;2024-01-15T04:03:46;2.17;;;1.67;;
13311;SDS011;34033;48.672;9.376;2024-01-15T04:06:11;2.00;;;1.40;;
13311;SDS011;34033;48.672;9.376;2024-01-15T04:08:37;2.20;;;1.00;;
13311;SDS011;34033;48.672;9.376;2024-01-15T04:11:02;2.43;;;0.90;;
13311;SDS011;34033;48.672;9.376;2024-01-15T04:13:28;2.10;;;1.20;;
13311;SDS011;34033;48.672;9.376;2024-01-15T04:15:53;1.50;;;1.13;;
13311;SDS011;34033;48.672;9.376;2024-01-15T04:18:18;1.77;;;1.20;;
13311;SDS011;34033;48.672;9.376;2024-01-15T04:20:44;0.97;;;0.80;;
13311;SDS011;34033;48.672;9.376;2024-01-15T04:23:09;2.50;;;1.60;;
13311;SDS011;34033;48.672;9.376;2024-01-15T04:25:34;1.33;;;0.93;;
13311;SDS011;34033;48.672;9.376;2024-01-15T04:28:00;2.30;;;0.90;;
13311;SDS011;34033;48.672;9.376;2024-01-15T04:30:25;0.83;;;0.83;;
13311;SDS011;34033;48.672;9.376;2024-01-15T04:32:51;0.70;;;0.70;;
13311;SDS011;34033;48.672;9.376;2024-01-15T04:35:16;1.53;;;1.10;;
13311;SDS011;34033;48.672;9.376;2024-01-15T04:37:42;1.63;;;1.17;;
13311;SDS011;34033;48.672;9.376;2024-01-15T04:40:07;0.70;;;0.70;;
13311;SDS011;34033;48.672;9.376;2024-01-15T04:42:33;1.30;;;1.03;;
13311;SDS011;34033;48.672;9.376;2024-01-15T04:44:58;2.33;;;0.80;;
13311;SDS011;34033;48.672;9.376;2024-01-15T04:47:24;1.70;;;1.10;;
13311;SDS011;34033;48.672;9.376;2024-01-15T04:49:49;0.70;;;0.70;;
13311;SDS011;34033;48.672;9.376;2024-01-15T04:52:15;0.70;;;0.70;;
13311;SDS011;34033;48.672;9.376;2024-01-15T04:54:40;1.83;;;1.00;;
13311;SDS011;34033;48.672;9.376;2024-01-15T04:57:05;2.60;;;1.63;;
13311;SDS011;34033;48.672;9.376;2024-01-15T04:59:31;2.43;;;1.43;;
13311;SDS011;34033;48.672;9.376;2024-01-15T05:01:56;2.03;;;1.17;;
13311;SDS011;34033;48.672;9.376;2024-01-15T05:04:22;1.50;;;1.40;;
13311;SDS011;34033;48.672;9.376;2024-01-15T05:06:47;1.37;;;1.13;;
13311;SDS011;34033;48.672;9.376;2024-01-15T05:09:13;1.50;;;1.40;;
13311;SDS011;34033;48.672;9.376;2024-01-15T05:11:39;2.93;;;1.10;;
13311;SDS011;34033;48.672;9.376;2024-01-15T05:14:04;2.47;;;1.53;;
13311;SDS011;34033;48.672;9.376;2024-01-15T05:16:30;1.33;;;1.10;;
13311;SDS011;34033;48.672;9.376;2024-01-15T05:18:55;2.77;;;1.33;;
13311;SDS011;34033;48.672;9.376;2024-01-15T05:21:21;1.17;;;1.07;;
13311;SDS011;34033;48.672;9.376;2024-01-15T05:23:46;1.40;;;1.10;;
13311;SDS011;34033;48.672;9.376;2024-01-15T05:26:11;5.30;;;1.50;;
13311;SDS011;34033;48.672;9.376;2024-01-15T05:28:37;1.97;;;1.30;;
13311;SDS011;34033;48.672;9.376;2024-01-15T05:31:02;1.50;;;1.40;;
13311;SDS011;34033;48.672;9.376;2024-01-15T05:33:29;1.03;;;1.03;;
13311;SDS011;34033;48.672;9.376;2024-01-15T05:35:54;1.10;;;1.03;;
13311;SDS011;34033;48.672;9.376;2024-01-15T05:38:20;1.50;;;1.40;;
13311;SDS011;34033;48.672;9.376;2024-01-15T05:40:45;2.37;;;1.10;;
13311;SDS011;34033;48.672;9.376;2024-01-15T05:43:10;2.13;;;1.50;;
13311;SDS011;34033;48.672;9.376;2024-01-15T05:45:37;1.00;;;0.83;;
13311;SDS011;34033;48.672;9.376;2024-01-15T05:48:03;1.83;;;1.40;;
13311;SDS011;34033;48.672;9.376;2024-01-15T05:50:29;1.50;;;1.37;;
13311;SDS011;34033;48.672;9.376;2024-01-15T05:52:54;3.40;;;2.10;;
13311;SDS011;34033;48.672;9.376;2024-01-15T05:55:19;2.10;;;1.43;;
13311;SDS011;34033;48.672;9.376;2024-01-15T05:57:45;1.20;;;1.10;;
13311;SDS011;34033;48.672;9.376;2024-01-15T06:00:10;1.10;;;0.93;;
13311;SDS011;34033;48.672;9.376;2024-01-15T06:02:39;1.00;;;1.00;;
13311;SDS011;34033;48.672;9.376;2024-01-15T06:05:05;2.50;;;1.70;;
13311;SDS011;34033;48.672;9.376;2024-01-15T06:07:31;0.87;;;0.83;;
13311;SDS011;34033;48.672;9.376;2024-01-15T06:09:56;2.97;;;1.27;;
13311;SDS011;34033;48.672;9.376;2024-01-15T06:12:22;1.67;;;1.20;;
13311;SDS011;34033;48.672;9.376;2024-01-15T06:14:47;1.13;;;0.97;;
13311;SDS011;34033;48.672;9.376;2024-01-15T06:17:13;1.50;;;0.97;;
13311;SDS011;34033;48.672;9.376;2024-01-15T06:19:38;3.70;;;1.40;;
13311;SDS011;34033;48.672;9.376;2024-01-15T06:22:04;1.57;;;1.00;;
13311;SDS011;34033;48.672;9.376;2024-01-15T06:24:29;0.70;;;0.70;;
13311;SDS011;34033;48.672;9.376;2024-01-15T06:26:55;1.23;;;1.13;;
13311;SDS011;34033;48.672;9.376;2024-01-15T06:29:20;1.33;;;1.23;;
13311;SDS011;34033;48.672;9.376;2024-01-15T06:31:46;0.83;;;0.83;;
13311;SDS011;34033;48.672;9.376;2024-01-15T06:34:11;1.33;;;1.23;;
13311;SDS011;34033;48.672;9.376;2024-01-15T06:36:37;1.77;;;1.40;;
13311;SDS011;34033;48.672;9.376;2024-01-15T06:39:02;2.47;;;1.60;;
13311;SDS011;34033;48.672;9.376;2024-01-15T06:41:27;2.63;;;1.50;;
13311;SDS011;34033;48.672;9.376;2024-01-15T06:43:53;1.10;;;1.00;;
13311;SDS011;34033;48.672;9.376;2024-01-15T06:46:21;2.13;;;1.40;;
13311;SDS011;34033;48.672;9.376;2024-01-15T06:48:47;1.10;;;1.00;;
13311;SDS011;34033;48.672;9.376;2024-01-15T06:51:13;1.33;;;1.23;;
13311;SDS011;34033;48.672;9.376;2024-01-15T06:53:39;1.87;;;1.40;;
13311;SDS011;34033;48.672;9.376;2024-01-15T06:56:04;3.33;;;1.40;;
13311;SDS011;34033;48.672;9.376;2024-01-15T06:58:32;1.20;;;1.00;;
13311;SDS011;34033;48.672;9.376;2024-01-15T07:00:58;4.20;;;1.27;;
13311;SDS011;34033;48.672;9.376;2024-01-15T07:03:24;0.97;;;0.97;;
13311;SDS011;34033;48.672;9.376;2024-01-15T07:05:50;0.97;;;0.97;;
13311;SDS011;34033;48.672;9.376;2024-01-15T07:08:15;1.90;;;1.47;;
13311;SDS011;34033;48.672;9.376;2024-01-15T07:10:40;1.10;;;1.00;;
13311;SDS011;34033;48.672;9.376;2024-01-15T07:13:06;1.23;;;1.15;;
13311;SDS011;34033;48.672;9.376;2024-01-15T07:15:31;1.50;;;1.20;;
13311;SDS011;34033;48.672;9.376;2024-01-15T07:17:56;1.80;;;1.43;;
13311;SDS011;34033;48.672;9.376;2024-01-15T07:20:22;1.80;;;1.27;;
13311;SDS011;34033;48.672;9.376;2024-01-15T07:22:47;1.30;;;1.07;;
13311;SDS011;34033;48.672;9.376;2024-01-15T07:25:12;1.17;;;1.07;;
13311;SDS011;34033;48.672;9.376;2024-01-15T07:27:38;1.43;;;1.17;;
13311;SDS011;34033;48.672;9.376;2024-01-15T07:30:03;1.53;;;1.27;;
13311;SDS011;34033;48.672;9.376;2024-01-15T07:32:30;1.43;;;1.07;;
13311;SDS011;34033;48.672;9.376;2024-01-15T07:34:56;0.80;;;0.80;;
13311;SDS011;34033;48.672;9.376;2024-01-15T07:37:22;1.80;;;1.27;;
13311;SDS011;34033;48.672;9.376;2024-01-15T07:39:48;1.10;;;1.00;;
13311;SDS011;34033;48.672;9.376;2024-01-15T07:42:14;0.97;;;0.97;;
13311;SDS011;34033;48.672;9.376;2024-01-15T07:44:39;3.67;;;1.47;;
13311;SDS011;34033;48.672;9.376;2024-01-15T07:47:04;1.60;;;1.50;;
13311;SDS011;34033;48.672;9.376;2024-01-15T07:49:30;5.47;;;1.90;;
13311;SDS011;34033;48.672;9.376;2024-01-15T07:51:55;1.33;;;1.23;;
13311;SDS011;34033;48.672;9.376;2024-01-15T07:54:21;1.23;;;1.13;;
13311;SDS011;34033;48.672;9.376;2024-01-15T07:57:00;1.70;;;1.40;;
13311;SDS011;34033;48.672;9.376;2024-01-15T07:59:28;2.30;;;1.57;;
13311;SDS011;34033;48.672;9.376;2024-01-15T08:01:53;1.60;;;1.50;;
13311;SDS011;34033;48.672;9.376;2024-01-15T08:04:19;2.83;;;1.07;;
13311;SDS011;34033;48.672;9.376;2024-01-15T08:06:45;1.83;;;1.20;;
13311;SDS011;34033;48.672;9.376;2024-01-15T08:09:11;1.90;;;1.40;;
13311;SDS011;34033;48.672;9.376;2024-01-15T08:11:40;1.30;;;1.23;;
13311;SDS011;34033;48.672;9.376;2024-01-15T08:14:09;0.77;;;0.63;;
13311;SDS011;34033;48.672;9.376;2024-01-15T08:16:35;1.20;;;0.70;;
13311;SDS011;34033;48.672;9.376;2024-01-15T08:19:01;1.10;;;0.83;;
13311;SDS011;34033;48.672;9.376;2024-01-15T08:21:27;1.40;;;1.30;;
13311;SDS011;34033;48.672;9.376;2024-01-15T08:23:58;1.17;;;0.80;;
13311;SDS011;34033;48.672;9.376;2024-01-15T08:26:24;0.90;;;0.80;;
13311;SDS011;34033;48.672;9.376;2024-01-15T08:28:50;1.53;;;1.20;;
13311;SDS011;34033;48.672;9.376;2024-01-15T08:31:15;1.20;;;1.00;;
13311;SDS011;34033;48.672;9.376;2024-01-15T08:33:41;0.80;;;0.73;;
13311;SDS011;34033;48.672;9.376;2024-01-15T08:36:06;2.57;;;1.60;;
13311;SDS011;34033;48.672;9.376;2024-01-15T08:38:32;1.20;;;1.13;;
13311;SDS011;34033;48.672;9.376;2024-01-15T08:40:57;1.07;;;0.93;;
13311;SDS011;34033;48.672;9.376;2024-01-15T08:43:25;1.40;;;1.10;;
13311;SDS011;34033;48.672;9.376;2024-01-15T08:45:51;0.80;;;0.80;;
13311;SDS011;34033;48.672;9.376;2024-01-15T08:48:16;1.20;;;1.10;;
13311;SDS011;34033;48.672;9.376;2024-01-15T08:50:41;1.20;;;1.10;;
13311;SDS011;34033;48.672;9.376;2024-01-15T08:53:07;1.10;;;1.10;;
13311;SDS011;34033;48.672;9.376;2024-01-15T08:55:32;1.30;;;0.90;;
13311;SDS011;34033;48.672;9.376;2024-01-15T08:57:58;0.83;;;0.80;;
13311;SDS011;34033;48.672;9.376;2024-01-15T09:00:23;0.50;;;0.50;;
13311;SDS011;34033;48.672;9.376;2024-01-15T09:02:48;0.70;;;0.70;;
13311;SDS011;34033;48.672;9.376;2024-01-15T09:05:14;2.57;;;1.20;;
13311;SDS011;34033;48.672;9.376;2024-01-15T09:07:39;1.00;;;0.90;;
13311;SDS011;34033;48.672;9.376;2024-01-15T09:10:05;0.60;;;0.60;;
13311;SDS011;34033;48.672;9.376;2024-01-15T09:12:31;0.77;;;0.77;;
13311;SDS011;34033;48.672;9.376;2024-01-15T09:14:56;0.73;;;0.70;;
13311;SDS011;34033;48.672;9.376;2024-01-15T09:17:22;1.83;;;1.13;;
13311;SDS011;34033;48.672;9.376;2024-01-15T09:19:50;0.83;;;0.70;;
13311;SDS011;34033;48.672;9.376;2024-01-15T09:22:15;0.93;;;0.93;;
13311;SDS011;34033;48.672;9.376;2024-01-15T09:24:44;0.97;;;0.67;;
13311;SDS011;34033;48.672;9.376;2024-01-15T09:27:10;3.00;;;0.50;;
13311;SDS011;34033;48.672;9.376;2024-01-15T09:29:35;0.50;;;0.50;;
13311;SDS011;34033;48.672;9.376;2024-01-15T09:32:04;0.33;;;0.33;;
13311;SDS011;34033;48.672;9.376;2024-01-15T09:34:30;0.93;;;0.93;;
13311;SDS011;34033;48.672;9.376;2024-01-15T09:36:56;0.80;;;0.80;;
13311;SDS011;34033;48.672;9.376;2024-01-15T09:39:21;0.63;;;0.63;;
13311;SDS011;34033;48.672;9.376;2024-01-15T09:41:48;0.70;;;0.60;;
13311;SDS011;34033;48.672;9.376;2024-01-15T09:44:14;1.77;;;0.70;;
13311;SDS011;34033;48.672;9.376;2024-01-15T09:46:41;1.00;;;0.90;;
13311;SDS011;34033;48.672;9.376;2024-01-15T09:49:09;0.90;;;0.80;;
13311;SDS011;34033;48.672;9.376;2024-01-15T09:51:35;1.47;;;0.80;;
13311;SDS011;34033;48.672;9.376;2024-01-15T09:54:01;0.57;;;0.57;;
13311;SDS011;34033;48.672;9.376;2024-01-15T09:56:29;0.47;;;0.47;;
13311;SDS011;34033;48.672;9.376;2024-01-15T09:58:55;1.83;;;1.03;;
13311;SDS011;34033;48.672;9.376;2024-01-15T10:01:22;1.07;;;0.67;;
13311;SDS011;34033;48.672;9.376;2024-01-15T10:03:47;1.33;;;0.77;;
13311;SDS011;34033;48.672;9.376;2024-01-15T10:06:17;0.73;;;0.73;;
13311;SDS011;34033;48.672;9.376;2024-01-15T10:08:43;0.93;;;0.83;;
13311;SDS011;34033;48.672;9.376;2024-01-15T10:11:13;0.87;;;0.87;;
13311;SDS011;34033;48.672;9.376;2024-01-15T10:13:39;0.50;;;0.50;;
13311;SDS011;34033;48.672;9.376;2024-01-15T10:16:04;0.80;;;0.80;;
13311;SDS011;34033;48.672;9.376;2024-01-15T10:18:30;0.40;;;0.40;;
13311;SDS011;34033;48.672;9.376;2024-01-15T10:20:56;0.70;;;0.70;;
13311;SDS011;34033;48.672;9.376;2024-01-15T10:23:22;1.87;;;0.90;;
13311;SDS011;34033;48.672;9.376;2024-01-15T10:25:48;0.67;;;0.67;;
13311;SDS011;34033;48.672;9.376;2024-01-15T10:28:13;1.43;;;0.70;;
13311;SDS011;34033;48.672;9.376;2024-01-15T10:30:39;1.00;;;0.83;;
13311;SDS011;34033;48.672;9.376;2024-01-15T10:33:04;0.33;;;0.33;;
13311;SDS011;34033;48.672;9.376;2024-01-15T10:35:30;1.00;;;0.73;;
13311;SDS011;34033;48.672;9.376;2024-01-15T10:37:58;0.53;;;0.53;;
13311;SDS011;34033;48.672;9.376;2024-01-15T10:40:27;0.57;;;0.40;;
13311;SDS011;34033;48.672;9.376;2024-01-15T10:42:53;0.43;;;0.43;;
13311;SDS011;34033;48.672;9.376;2024-01-15T10:45:18;0.70;;;0.70;;
13311;SDS011;34033;48.672;9.376;2024-01-15T10:47:44;0.50;;;0.50;;
13311;SDS011;34033;48.672;9.376;2024-01-15T10:50:10;0.50;;;0.50;;
13311;SDS011;34033;48.672;9.376;2024-01-15T10:52:37;0.50;;;0.50;;
13311;SDS011;34033;48.672;9.376;2024-01-15T10:55:05;0.60;;;0.60;;
13311;SDS011;34033;48.672;9.376;2024-01-15T10:57:33;0.40;;;0.40;;
13311;SDS011;34033;48.672;9.376;2024-01-15T11:00:00;1.70;;;1.10;;
13311;SDS011;34033;48.672;9.376;2024-01-15T11:02:29;0.60;;;0.60;;
13311;SDS011;34033;48.672;9.376;2024-01-15T11:04:54;0.50;;;0.50;;
13311;SDS011;34033;48.672;9.376;2024-01-15T11:07:21;0.40;;;0.40;;
13311;SDS011;34033;48.672;9.376;2024-01-15T11:09:48;0.57;;;0.40;;
13311;SDS011;34033;48.672;9.376;2024-01-15T11:12:15;0.60;;;0.60;;
13311;SDS011;34033;48.672;9.376;2024-01-15T11:14:45;0.70;;;0.70;;
13311;SDS011;34033;48.672;9.376;2024-01-15T11:17:12;0.33;;;0.33;;
13311;SDS011;34033;48.672;9.376;2024-01-15T11:19:42;0.50;;;0.50;;
13311;SDS011;34033;48.672;9.376;2024-01-15T11:22:09;0.27;;;0.27;;
13311;SDS011;34033;48.672;9.376;2024-01-15T11:24:38;0.20;;;0.20;;
13311;SDS011;34033;48.672;9.376;2024-01-15T11:27:04;0.60;;;0.60;;
13311;SDS011;34033;48.672;9.376;2024-01-15T11:29:31;0.33;;;0.33;;
13311;SDS011;34033;48.672;9.376;2024-01-15T11:32:17;1.17;;;0.80;;
13311;SDS011;34033;48.672;9.376;2024-01-15T11:34:54;0.50;;;0.50;;
13311;SDS011;34033;48.672;9.376;2024-01-15T11:37:23;0.60;;;0.50;;
13311;SDS011;34033;48.672;9.376;2024-01-15T11:39:50;0.90;;;0.80;;
13311;SDS011;34033;48.672;9.376;2024-01-15T11:42:20;0.73;;;0.73;;
13311;SDS011;34033;48.672;9.376;2024-01-15T11:44:46;0.67;;;0.40;;
13311;SDS011;34033;48.672;9.376;2024-01-15T11:47:13;0.70;;;0.67;;
13311;SDS011;34033;48.672;9.376;2024-01-15T11:52:27;0.50;;;0.50;;
13311;SDS011;34033;48.672;9.376;2024-01-15T11:57:49;0.50;;;0.50;;
13311;SDS011;34033;48.672;9.376;2024-01-15T12:00:16;0.43;;;0.43;;
13311;SDS011;34033;48.672;9.376;2024-01-15T12:02:42;0.37;;;0.37;;
13311;SDS011;34033;48.672;9.376;2024-01-15T12:05:09;0.50;;;0.50;;
13311;SDS011;34033;48.672;9.376;2024-01-15T12:07:37;0.60;;;0.60;;
13311;SDS011;34033;48.672;9.376;2024-01-15T12:10:10;0.40;;;0.40;;
13311;SDS011;34033;48.672;9.376;2024-01-15T12:15:24;0.60;;;0.60;;
13311;SDS011;34033;48.672;9.376;2024-01-15T12:17:50;0.50;;;0.50;;
13311;SDS011;34033;48.672;9.376;2024-01-15T12:20:16;2.57;;;0.87;;
13311;SDS011;34033;48.672;9.376;2024-01-15T12:22:42;1.03;;;0.40;;
13311;SDS011;34033;48.672;9.376;2024-01-15T12:25:08;0.70;;;0.70;;
13311;SDS011;34033;48.672;9.376;2024-01-15T12:27:34;0.87;;;0.80;;
13311;SDS011;34033;48.672;9.376;2024-01-15T12:30:00;1.10;;;0.97;;
13311;SDS011;34033;48.672;9.376;2024-01-15T12:32:25;0.47;;;0.47;;
13311;SDS011;34033;48.672;9.376;2024-01-15T12:34:51;0.80;;;0.80;;
13311;SDS011;34033;48.672;9.376;2024-01-15T12:37:19;1.70;;;0.40;;
13311;SDS011;34033;48.672;9.376;2024-01-15T12:39:45;1.07;;;0.50;;
13311;SDS011;34033;48.672;9.376;2024-01-15T12:42:11;0.47;;;0.43;;
13311;SDS011;34033;48.672;9.376;2024-01-15T12:44:36;0.57;;;0.57;;
13311;SDS011;34033;48.672;9.376;2024-01-15T12:47:06;0.70;;;0.70;;
13311;SDS011;34033;48.672;9.376;2024-01-15T12:49:31;0.97;;;0.90;;
13311;SDS011;34033;48.672;9.376;2024-01-15T12:51:57;0.70;;;0.70;;
13311;SDS011;34033;48.672;9.376;2024-01-15T12:54:23;0.90;;;0.80;;
13311;SDS011;34033;48.672;9.376;2024-01-15T12:56:50;0.57;;;0.57;;
13311;SDS011;34033;48.672;9.376;2024-01-15T12:59:16;0.83;;;0.63;;
13311;SDS011;34033;48.672;9.376;2024-01-15T13:01:42;0.57;;;0.57;;
13311;SDS011;34033;48.672;9.376;2024-01-15T13:04:08;1.13;;;0.67;;
13311;SDS011;34033;48.672;9.376;2024-01-15T13:06:36;0.37;;;0.37;;
13311;SDS011;34033;48.672;9.376;2024-01-15T13:09:05;0.57;;;0.57;;
13311;SDS011;34033;48.672;9.376;2024-01-15T13:11:33;0.83;;;0.83;;
13311;SDS011;34033;48.672;9.376;2024-01-15T13:13:59;0.70;;;0.70;;
13311;SDS011;34033;48.672;9.376;2024-01-15T13:16:24;0.80;;;0.80;;
13311;SDS011;34033;48.672;9.376;2024-01-15T13:18:53;0.57;;;0.57;;
13311;SDS011;34033;48.672;9.376;2024-01-15T13:21:18;0.70;;;0.70;;
13311;SDS011;34033;48.672;9.376;2024-01-15T13:23:43;0.60;;;0.60;;
13311;SDS011;34033;48.672;9.376;2024-01-15T13:26:09;0.57;;;0.57;;
13311;SDS011;34033;48.672;9.376;2024-01-15T13:28:34;0.50;;;0.50;;
13311;SDS011;34033;48.672;9.376;2024-01-15T13:30:59;0.70;;;0.70;;
13311;SDS011;34033;48.672;9.376;2024-01-15T13:33:25;1.00;;;0.80;;
13311;SDS011;34033;48.672;9.376;2024-01-15T13:35:51;1.47;;;1.00;;
13311;SDS011;34033;48.672;9.376;2024-01-15T13:38:16;0.63;;;0.63;;
13311;SDS011;34033;48.672;9.376;2024-01-15T13:40:42;0.80;;;0.80;;
13311;SDS011;34033;48.672;9.376;2024-01-15T13:43:09;0.70;;;0.70;;
13311;SDS011;34033;48.672;9.376;2024-01-15T13:45:35;0.63;;;0.63;;
13311;SDS011;34033;48.672;9.376;2024-01-15T13:48:02;0.57;;;0.57;;
13311;SDS011;34033;48.672;9.376;2024-01-15T13:50:30;0.87;;;0.87;;
13311;SDS011;34033;48.672;9.376;2024-01-15T13:52:56;0.70;;;0.57;;
13311;SDS011;34033;48.672;9.376;2024-01-15T13:55:21;0.60;;;0.60;;
13311;SDS011;34033;48.672;9.376;2024-01-15T13:57:47;0.90;;;0.70;;
13311;SDS011;34033;48.672;9.376;2024-01-15T14:00:12;0.43;;;0.43;;
13311;SDS011;34033;48.672;9.376;2024-01-15T14:02:43;0.63;;;0.63;;
13311;SDS011;34033;48.672;9.376;2024-01-15T14:05:08;5.50;;;2.03;;
13311;SDS011;34033;48.672;9.376;2024-01-15T14:07:34;0.93;;;0.80;;
13311;SDS011;34033;48.672;9.376;2024-01-15T14:09:59;2.50;;;0.80;;
13311;SDS011;34033;48.672;9.376;2024-01-15T14:12:24;0.67;;;0.67;;
13311;SDS011;34033;48.672;9.376;2024-01-15T14:14:51;0.70;;;0.70;;
13311;SDS011;34033;48.672;9.376;2024-01-15T14:17:17;0.87;;;0.87;;
13311;SDS011;34033;48.672;9.376;2024-01-15T14:19:42;0.93;;;0.83;;
13311;SDS011;34033;48.672;9.376;2024-01-15T14:22:08;0.50;;;0.50;;
13311;SDS011;34033;48.672;9.376;2024-01-15T14:24:33;0.50;;;0.50;;
13311;SDS011;34033;48.672;9.376;2024-01-15T14:26:59;1.03;;;0.70;;
13311;SDS011;34033;48.672;9.376;2024-01-15T14:29:24;0.70;;;0.60;;
13311;SDS011;34033;48.672;9.376;2024-01-15T14:31:51;2.13;;;0.77;;
13311;SDS011;34033;48.672;9.376;2024-01-15T14:34:17;1.10;;;1.00;;
13311;SDS011;34033;48.672;9.376;2024-01-15T14:36:43;1.30;;;1.20;;
13311;SDS011;34033;48.672;9.376;2024-01-15T14:39:08;0.80;;;0.80;;
13311;SDS011;34033;48.672;9.376;2024-01-15T14:41:34;1.33;;;1.00;;
13311;SDS011;34033;48.672;9.376;2024-01-15T14:44:00;0.90;;;0.90;;
13311;SDS011;34033;48.672;9.376;2024-01-15T14:46:25;2.33;;;1.20;;
13311;SDS011;34033;48.672;9.376;2024-01-15T14:48:52;3.70;;;0.97;;